Terminal Aerodrome Forecast
Issued by NWS

Home | Current Version | Previous Version | Text Only | Print | Product List | Glossary On
Versions: 1 2 3 4 5 6 7 8 9 10 11 12 13 14
000
FTAK31 PAFA 292350
TAFAOM
TAF
PAOM 292350Z 3000/3024 04007KT 5SM RA BR OVC015
     FM301500 36010KT P6SM -SHRA SCT015 OVC025
     FM302000 36015KT P6SM VCSH SCT025=

USA.gov is the U.S. government's official web portal to all federal, state and local government web resources and services.